sensor_id;sensor_type;location;lat;lon;timestamp;pressure;altitude;pressure_sealevel;temperature;humidity
57498;BME280;43336;51.416;-0.810;2023-04-27T00:02:25;101107.78;;;10.54;63.55
57498;BME280;43336;51.416;-0.810;2023-04-27T00:05:25;101125.66;;;10.61;63.52
57498;BME280;43336;51.416;-0.810;2023-04-27T00:08:27;101132.28;;;10.68;63.15
57498;BME280;43336;51.416;-0.810;2023-04-27T00:11:27;101103.91;;;10.43;63.75
57498;BME280;43336;51.416;-0.810;2023-04-27T00:14:28;101081.25;;;10.25;63.78
57498;BME280;43336;51.416;-0.810;2023-04-27T00:17:29;101085.34;;;10.31;63.08
57498;BME280;43336;51.416;-0.810;2023-04-27T00:20:30;101120.16;;;10.48;63.58
57498;BME280;43336;51.416;-0.810;2023-04-27T00:23:31;101165.16;;;10.72;63.81
57498;BME280;43336;51.416;-0.810;2023-04-27T00:26:32;101141.59;;;10.55;63.80
57498;BME280;43336;51.416;-0.810;2023-04-27T00:29:32;101082.13;;;10.25;63.62
57498;BME280;43336;51.416;-0.810;2023-04-27T00:32:33;101118.47;;;10.47;63.44
57498;BME280;43336;51.416;-0.810;2023-04-27T00:35:33;101183.06;;;10.80;63.87
57498;BME280;43336;51.416;-0.810;2023-04-27T00:38:34;101109.88;;;10.45;63.77
57498;BME280;43336;51.416;-0.810;2023-04-27T00:41:36;101098.34;;;10.32;63.25
57498;BME280;43336;51.416;-0.810;2023-04-27T00:44:38;101053.75;;;10.18;63.97
57498;BME280;43336;51.416;-0.810;2023-04-27T00:47:40;101142.66;;;10.70;63.96
57498;BME280;43336;51.416;-0.810;2023-04-27T00:50:41;101100.44;;;10.43;63.57
57498;BME280;43336;51.416;-0.810;2023-04-27T00:53:42;101095.38;;;10.40;63.64
57498;BME280;43336;51.416;-0.810;2023-04-27T00:56:43;101056.16;;;10.22;63.23
57498;BME280;43336;51.416;-0.810;2023-04-27T00:59:44;101107.41;;;10.61;63.14
57498;BME280;43336;51.416;-0.810;2023-04-27T01:02:46;101051.09;;;10.19;63.56
57498;BME280;43336;51.416;-0.810;2023-04-27T01:05:48;101054.31;;;10.24;63.17
57498;BME280;43336;51.416;-0.810;2023-04-27T01:08:49;101060.25;;;10.28;62.97
57498;BME280;43336;51.416;-0.810;2023-04-27T01:11:49;101064.63;;;10.27;63.73
57498;BME280;43336;51.416;-0.810;2023-04-27T01:14:50;100996.06;;;9.88;63.77
57498;BME280;43336;51.416;-0.810;2023-04-27T01:17:58;101041.16;;;10.09;63.80
57498;BME280;43336;51.416;-0.810;2023-04-27T01:20:59;101013.91;;;9.97;62.81
57498;BME280;43336;51.416;-0.810;2023-04-27T01:24:00;101091.00;;;10.40;63.77
57498;BME280;43336;51.416;-0.810;2023-04-27T01:27:01;101051.31;;;10.15;63.22
57498;BME280;43336;51.416;-0.810;2023-04-27T01:30:05;101052.28;;;10.12;63.34
57498;BME280;43336;51.416;-0.810;2023-04-27T01:33:06;101095.03;;;10.29;63.25
57498;BME280;43336;51.416;-0.810;2023-04-27T01:36:07;101074.91;;;10.12;63.30
57498;BME280;43336;51.416;-0.810;2023-04-27T01:39:08;101025.00;;;9.82;63.20
57498;BME280;43336;51.416;-0.810;2023-04-27T01:42:09;101040.38;;;9.88;63.45
57498;BME280;43336;51.416;-0.810;2023-04-27T01:45:11;101109.06;;;10.24;64.21
57498;BME280;43336;51.416;-0.810;2023-04-27T01:48:11;101062.13;;;9.87;63.50
57498;BME280;43336;51.416;-0.810;2023-04-27T01:51:12;101034.44;;;9.65;63.64
57498;BME280;43336;51.416;-0.810;2023-04-27T01:54:12;101053.41;;;9.67;64.09
57498;BME280;43336;51.416;-0.810;2023-04-27T01:57:15;101120.81;;;10.14;64.37
57498;BME280;43336;51.416;-0.810;2023-04-27T02:00:17;101067.81;;;9.76;63.45
57498;BME280;43336;51.416;-0.810;2023-04-27T02:03:18;100957.16;;;9.06;63.65
57498;BME280;43336;51.416;-0.810;2023-04-27T02:06:18;101103.81;;;9.87;63.75
57498;BME280;43336;51.416;-0.810;2023-04-27T02:09:19;101069.13;;;9.66;64.14
57498;BME280;43336;51.416;-0.810;2023-04-27T02:12:20;101098.91;;;9.79;63.92
57498;BME280;43336;51.416;-0.810;2023-04-27T02:15:21;101110.59;;;9.91;63.94
57498;BME280;43336;51.416;-0.810;2023-04-27T02:18:21;101048.81;;;9.53;64.56
57498;BME280;43336;51.416;-0.810;2023-04-27T02:21:22;101085.47;;;9.69;64.28
57498;BME280;43336;51.416;-0.810;2023-04-27T02:24:23;101097.06;;;9.62;63.99
57498;BME280;43336;51.416;-0.810;2023-04-27T02:27:23;101061.38;;;9.64;63.95
57498;BME280;43336;51.416;-0.810;2023-04-27T02:30:24;101071.44;;;9.72;64.23
57498;BME280;43336;51.416;-0.810;2023-04-27T02:33:25;101095.59;;;9.75;63.80
57498;BME280;43336;51.416;-0.810;2023-04-27T02:36:26;101052.34;;;9.52;64.22
57498;BME280;43336;51.416;-0.810;2023-04-27T02:39:27;101009.13;;;9.28;64.27
57498;BME280;43336;51.416;-0.810;2023-04-27T02:42:28;101016.94;;;9.28;64.31
57498;BME280;43336;51.416;-0.810;2023-04-27T02:45:29;101077.47;;;9.53;64.50
57498;BME280;43336;51.416;-0.810;2023-04-27T02:48:30;101066.31;;;9.50;64.22
57498;BME280;43336;51.416;-0.810;2023-04-27T02:51:31;101006.16;;;9.17;64.74
57498;BME280;43336;51.416;-0.810;2023-04-27T02:54:31;101046.16;;;9.35;64.47
57498;BME280;43336;51.416;-0.810;2023-04-27T02:57:33;101071.78;;;9.44;64.49
57498;BME280;43336;51.416;-0.810;2023-04-27T03:00:34;101070.81;;;9.46;64.02
57498;BME280;43336;51.416;-0.810;2023-04-27T03:03:35;101051.13;;;9.41;64.20
57498;BME280;43336;51.416;-0.810;2023-04-27T03:06:35;101106.50;;;9.65;64.26
57498;BME280;43336;51.416;-0.810;2023-04-27T03:09:36;101007.31;;;9.10;63.91
57498;BME280;43336;51.416;-0.810;2023-04-27T03:12:37;101044.19;;;9.40;64.01
57498;BME280;43336;51.416;-0.810;2023-04-27T03:15:37;101079.72;;;9.61;64.07
57498;BME280;43336;51.416;-0.810;2023-04-27T03:18:38;101078.97;;;9.59;64.30
57498;BME280;43336;51.416;-0.810;2023-04-27T03:21:39;101085.94;;;9.59;64.20
57498;BME280;43336;51.416;-0.810;2023-04-27T03:24:40;101002.25;;;9.06;64.21
57498;BME280;43336;51.416;-0.810;2023-04-27T03:27:40;100993.84;;;9.00;64.33
57498;BME280;43336;51.416;-0.810;2023-04-27T03:30:42;101018.44;;;9.13;63.83
57498;BME280;43336;51.416;-0.810;2023-04-27T03:33:43;101014.91;;;9.14;63.94
57498;BME280;43336;51.416;-0.810;2023-04-27T03:36:43;100856.22;;;8.10;64.03
57498;BME280;43336;51.416;-0.810;2023-04-27T03:39:44;100996.22;;;8.84;64.28
57498;BME280;43336;51.416;-0.810;2023-04-27T03:42:45;101010.16;;;9.03;64.47
57498;BME280;43336;51.416;-0.810;2023-04-27T03:45:46;101043.19;;;9.23;64.28
57498;BME280;43336;51.416;-0.810;2023-04-27T03:48:46;101008.34;;;9.05;63.92
57498;BME280;43336;51.416;-0.810;2023-04-27T03:51:47;101068.47;;;9.40;64.36
57498;BME280;43336;51.416;-0.810;2023-04-27T03:54:48;101075.53;;;9.38;64.00
57498;BME280;43336;51.416;-0.810;2023-04-27T03:57:48;101036.13;;;9.05;64.42
57498;BME280;43336;51.416;-0.810;2023-04-27T04:00:49;100960.44;;;8.69;64.31
57498;BME280;43336;51.416;-0.810;2023-04-27T04:03:50;101016.94;;;9.07;64.42
57498;BME280;43336;51.416;-0.810;2023-04-27T04:06:50;101025.78;;;9.03;64.67
57498;BME280;43336;51.416;-0.810;2023-04-27T04:09:51;101051.63;;;9.28;64.14
57498;BME280;43336;51.416;-0.810;2023-04-27T04:12:52;101034.56;;;9.21;64.63
57498;BME280;43336;51.416;-0.810;2023-04-27T04:19:01;101038.41;;;9.13;64.12
57498;BME280;43336;51.416;-0.810;2023-04-27T04:22:03;100792.69;;;7.75;63.76
57498;BME280;43336;51.416;-0.810;2023-04-27T04:25:04;101011.34;;;8.96;64.35
57498;BME280;43336;51.416;-0.810;2023-04-27T04:28:05;100992.44;;;8.91;64.40
57498;BME280;43336;51.416;-0.810;2023-04-27T04:31:06;100961.81;;;8.77;64.44
57498;BME280;43336;51.416;-0.810;2023-04-27T04:34:09;101015.50;;;9.00;64.17
57498;BME280;43336;51.416;-0.810;2023-04-27T04:37:09;101026.88;;;9.18;64.18
57498;BME280;43336;51.416;-0.810;2023-04-27T04:40:11;100934.78;;;8.61;64.83
57498;BME280;43336;51.416;-0.810;2023-04-27T04:43:12;101027.81;;;9.17;64.36
57498;BME280;43336;51.416;-0.810;2023-04-27T04:46:13;100968.53;;;8.83;64.27
57498;BME280;43336;51.416;-0.810;2023-04-27T04:49:13;101012.41;;;9.13;64.45
57498;BME280;43336;51.416;-0.810;2023-04-27T04:52:14;100972.88;;;8.82;64.70
57498;BME280;43336;51.416;-0.810;2023-04-27T04:55:15;100988.69;;;8.98;64.83
57498;BME280;43336;51.416;-0.810;2023-04-27T04:58:15;100973.72;;;8.83;64.29
57498;BME280;43336;51.416;-0.810;2023-04-27T05:01:16;101005.22;;;8.97;64.43
57498;BME280;43336;51.416;-0.810;2023-04-27T05:04:17;101020.34;;;9.10;64.20
57498;BME280;43336;51.416;-0.810;2023-04-27T05:07:18;101006.34;;;8.92;64.71
57498;BME280;43336;51.416;-0.810;2023-04-27T05:10:19;100953.56;;;8.68;64.81
57498;BME280;43336;51.416;-0.810;2023-04-27T05:13:20;100954.72;;;8.60;64.88
57498;BME280;43336;51.416;-0.810;2023-04-27T05:16:21;100996.28;;;8.82;63.98
57498;BME280;43336;51.416;-0.810;2023-04-27T05:19:21;101005.31;;;8.74;64.14
57498;BME280;43336;51.416;-0.810;2023-04-27T05:22:23;100972.75;;;8.65;64.46
57498;BME280;43336;51.416;-0.810;2023-04-27T05:25:23;100987.09;;;8.74;64.67
57498;BME280;43336;51.416;-0.810;2023-04-27T05:28:24;101030.19;;;9.01;64.29
57498;BME280;43336;51.416;-0.810;2023-04-27T05:31:24;101000.53;;;8.63;64.63
57498;BME280;43336;51.416;-0.810;2023-04-27T05:34:25;100986.66;;;8.64;65.03
57498;BME280;43336;51.416;-0.810;2023-04-27T05:37:26;100982.06;;;8.71;64.40
57498;BME280;43336;51.416;-0.810;2023-04-27T05:40:27;100981.06;;;8.73;64.60
57498;BME280;43336;51.416;-0.810;2023-04-27T05:43:28;100995.28;;;8.65;64.71
57498;BME280;43336;51.416;-0.810;2023-04-27T05:46:29;101016.53;;;8.96;64.83
57498;BME280;43336;51.416;-0.810;2023-04-27T05:49:29;101038.13;;;8.98;64.86
57498;BME280;43336;51.416;-0.810;2023-04-27T05:52:31;101021.75;;;8.96;64.78
57498;BME280;43336;51.416;-0.810;2023-04-27T05:55:31;100963.81;;;8.50;64.89
57498;BME280;43336;51.416;-0.810;2023-04-27T05:58:33;101022.84;;;8.91;64.81
57498;BME280;43336;51.416;-0.810;2023-04-27T06:01:33;101025.84;;;8.81;64.92
57498;BME280;43336;51.416;-0.810;2023-04-27T06:04:34;100940.84;;;8.40;64.72
57498;BME280;43336;51.416;-0.810;2023-04-27T06:07:36;100994.84;;;8.75;64.70
57498;BME280;43336;51.416;-0.810;2023-04-27T06:10:38;100930.19;;;8.24;65.07
57498;BME280;43336;51.416;-0.810;2023-04-27T06:13:38;100975.41;;;8.64;65.11
57498;BME280;43336;51.416;-0.810;2023-04-27T06:16:39;100978.66;;;8.69;64.83
57498;BME280;43336;51.416;-0.810;2023-04-27T06:19:40;100891.63;;;8.13;64.96
57498;BME280;43336;51.416;-0.810;2023-04-27T06:22:41;100981.34;;;8.67;65.02
57498;BME280;43336;51.416;-0.810;2023-04-27T06:25:41;100966.94;;;8.58;65.33
57498;BME280;43336;51.416;-0.810;2023-04-27T06:28:42;101003.31;;;8.80;65.11
57498;BME280;43336;51.416;-0.810;2023-04-27T06:31:43;101010.88;;;8.87;65.36
57498;BME280;43336;51.416;-0.810;2023-04-27T06:34:43;100972.84;;;8.62;64.99
57498;BME280;43336;51.416;-0.810;2023-04-27T06:37:44;101014.59;;;8.81;65.32
57498;BME280;43336;51.416;-0.810;2023-04-27T06:40:49;101021.47;;;8.82;65.23
57498;BME280;43336;51.416;-0.810;2023-04-27T06:43:50;100998.97;;;8.81;65.23
57498;BME280;43336;51.416;-0.810;2023-04-27T06:46:51;100996.50;;;8.78;65.13
57498;BME280;43336;51.416;-0.810;2023-04-27T06:49:51;100967.53;;;8.65;65.65
57498;BME280;43336;51.416;-0.810;2023-04-27T06:52:52;100985.97;;;8.81;65.08
57498;BME280;43336;51.416;-0.810;2023-04-27T06:55:53;100970.00;;;8.68;65.50
57498;BME280;43336;51.416;-0.810;2023-04-27T06:58:53;101013.94;;;8.96;65.63
57498;BME280;43336;51.416;-0.810;2023-04-27T07:01:54;100951.94;;;8.65;65.98
57498;BME280;43336;51.416;-0.810;2023-04-27T07:04:55;100910.81;;;8.31;65.65
57498;BME280;43336;51.416;-0.810;2023-04-27T07:07:56;100959.97;;;8.59;65.67
57498;BME280;43336;51.416;-0.810;2023-04-27T07:10:57;100970.06;;;8.67;64.93
57498;BME280;43336;51.416;-0.810;2023-04-27T07:13:57;100980.22;;;8.73;65.61
57498;BME280;43336;51.416;-0.810;2023-04-27T07:16:58;100999.97;;;8.99;65.90
57498;BME280;43336;51.416;-0.810;2023-04-27T07:20:00;100998.19;;;8.99;65.67
57498;BME280;43336;51.416;-0.810;2023-04-27T07:23:01;100999.88;;;9.00;65.20
57498;BME280;43336;51.416;-0.810;2023-04-27T07:26:02;100977.97;;;8.86;65.85
57498;BME280;43336;51.416;-0.810;2023-04-27T07:29:03;100984.81;;;8.88;66.01
57498;BME280;43336;51.416;-0.810;2023-04-27T07:32:05;101001.25;;;8.89;65.64
57498;BME280;43336;51.416;-0.810;2023-04-27T07:35:07;100929.78;;;8.56;65.39
57498;BME280;43336;51.416;-0.810;2023-04-27T07:38:08;100953.69;;;8.65;65.29
57498;BME280;43336;51.416;-0.810;2023-04-27T07:41:09;101015.25;;;9.06;65.44
57498;BME280;43336;51.416;-0.810;2023-04-27T07:44:10;100946.66;;;8.67;65.95
57498;BME280;43336;51.416;-0.810;2023-04-27T07:47:11;101000.41;;;9.08;65.51
57498;BME280;43336;51.416;-0.810;2023-04-27T07:50:12;100958.00;;;8.86;65.70
57498;BME280;43336;51.416;-0.810;2023-04-27T07:53:17;100994.91;;;9.16;65.81
57498;BME280;43336;51.416;-0.810;2023-04-27T07:56:18;100974.00;;;8.97;65.44
57498;BME280;43336;51.416;-0.810;2023-04-27T07:59:19;100977.25;;;9.02;65.21
57498;BME280;43336;51.416;-0.810;2023-04-27T08:02:19;101000.94;;;9.17;65.76
57498;BME280;43336;51.416;-0.810;2023-04-27T08:05:20;101007.84;;;9.18;65.21
57498;BME280;43336;51.416;-0.810;2023-04-27T08:08:21;100955.66;;;8.80;65.76
57498;BME280;43336;51.416;-0.810;2023-04-27T08:11:22;100996.06;;;9.09;65.75
57498;BME280;43336;51.416;-0.810;2023-04-27T08:14:23;101006.06;;;9.18;65.54
57498;BME280;43336;51.416;-0.810;2023-04-27T08:17:24;100914.72;;;8.63;65.73
57498;BME280;43336;51.416;-0.810;2023-04-27T08:20:24;100908.81;;;8.59;65.30
57498;BME280;43336;51.416;-0.810;2023-04-27T08:23:26;100921.25;;;8.73;65.63
57498;BME280;43336;51.416;-0.810;2023-04-27T08:26:31;100948.19;;;8.93;65.59
57498;BME280;43336;51.416;-0.810;2023-04-27T08:29:33;100960.72;;;9.03;65.69
57498;BME280;43336;51.416;-0.810;2023-04-27T08:32:33;100940.84;;;9.02;65.55
57498;BME280;43336;51.416;-0.810;2023-04-27T08:35:34;100944.06;;;9.07;65.41
57498;BME280;43336;51.416;-0.810;2023-04-27T08:38:35;100854.03;;;8.64;65.58
57498;BME280;43336;51.416;-0.810;2023-04-27T08:41:41;100908.19;;;8.95;65.71
57498;BME280;43336;51.416;-0.810;2023-04-27T08:44:43;100939.38;;;9.16;65.94
57498;BME280;43336;51.416;-0.810;2023-04-27T08:47:44;100927.53;;;9.08;65.78
57498;BME280;43336;51.416;-0.810;2023-04-27T08:50:49;100898.53;;;8.97;65.75
57498;BME280;43336;51.416;-0.810;2023-04-27T08:53:53;100874.88;;;8.83;65.74
57498;BME280;43336;51.416;-0.810;2023-04-27T08:56:53;100925.25;;;9.21;65.51
57498;BME280;43336;51.416;-0.810;2023-04-27T08:59:59;100866.56;;;8.95;65.29
57498;BME280;43336;51.416;-0.810;2023-04-27T09:03:00;100904.66;;;9.17;65.11
57498;BME280;43336;51.416;-0.810;2023-04-27T09:06:04;100953.25;;;9.55;65.36
57498;BME280;43336;51.416;-0.810;2023-04-27T09:09:05;100893.06;;;9.24;65.17
57498;BME280;43336;51.416;-0.810;2023-04-27T09:12:20;100934.50;;;9.47;64.99
57498;BME280;43336;51.416;-0.810;2023-04-27T09:15:21;100882.13;;;9.16;65.03
57498;BME280;43336;51.416;-0.810;2023-04-27T09:18:22;100937.25;;;9.44;64.98
57498;BME280;43336;51.416;-0.810;2023-04-27T09:21:24;100956.56;;;9.59;65.37
57498;BME280;43336;51.416;-0.810;2023-04-27T09:24:25;100941.81;;;9.39;65.04
57498;BME280;43336;51.416;-0.810;2023-04-27T09:27:26;100955.41;;;9.46;64.97
57498;BME280;43336;51.416;-0.810;2023-04-27T09:30:28;100932.09;;;9.43;64.81
57498;BME280;43336;51.416;-0.810;2023-04-27T09:33:31;100957.19;;;9.64;64.99
57498;BME280;43336;51.416;-0.810;2023-04-27T09:36:32;100833.06;;;8.88;65.27
57498;BME280;43336;51.416;-0.810;2023-04-27T09:39:34;100939.44;;;9.53;65.21
57498;BME280;43336;51.416;-0.810;2023-04-27T09:42:36;100887.53;;;9.30;64.81
57498;BME280;43336;51.416;-0.810;2023-04-27T09:45:37;100827.25;;;9.01;65.16
57498;BME280;43336;51.416;-0.810;2023-04-27T09:48:39;100897.16;;;9.48;64.92
57498;BME280;43336;51.416;-0.810;2023-04-27T09:51:40;100914.63;;;9.65;64.96
57498;BME280;43336;51.416;-0.810;2023-04-27T09:54:41;100921.22;;;9.72;65.35
57498;BME280;43336;51.416;-0.810;2023-04-27T10:07:56;100876.78;;;9.56;64.97
57498;BME280;43336;51.416;-0.810;2023-04-27T10:10:57;100897.13;;;9.67;65.31
57498;BME280;43336;51.416;-0.810;2023-04-27T10:14:05;100912.50;;;9.73;65.38
57498;BME280;43336;51.416;-0.810;2023-04-27T10:17:09;100879.03;;;9.64;65.10
57498;BME280;43336;51.416;-0.810;2023-04-27T10:20:10;100881.47;;;9.69;65.09
57498;BME280;43336;51.416;-0.810;2023-04-27T10:23:21;100883.00;;;9.73;64.85
57498;BME280;43336;51.416;-0.810;2023-04-27T10:26:23;100876.44;;;9.83;65.21
57498;BME280;43336;51.416;-0.810;2023-04-27T10:29:34;100895.00;;;9.94;65.20
57498;BME280;43336;51.416;-0.810;2023-04-27T10:32:35;100838.16;;;9.66;65.38
57498;BME280;43336;51.416;-0.810;2023-04-27T10:35:44;100747.16;;;9.08;65.37
57498;BME280;43336;51.416;-0.810;2023-04-27T10:38:55;100862.34;;;9.87;65.58
57498;BME280;43336;51.416;-0.810;2023-04-27T10:41:56;100872.47;;;9.93;65.09
57498;BME280;43336;51.416;-0.810;2023-04-27T10:44:57;100874.72;;;10.01;65.14
57498;BME280;43336;51.416;-0.810;2023-04-27T10:47:59;100867.66;;;10.03;65.09
57498;BME280;43336;51.416;-0.810;2023-04-27T10:51:00;100845.56;;;9.93;65.26
57498;BME280;43336;51.416;-0.810;2023-04-27T10:54:02;100806.91;;;9.66;65.23
57498;BME280;43336;51.416;-0.810;2023-04-27T10:57:07;100842.88;;;9.94;65.43
57498;BME280;43336;51.416;-0.810;2023-04-27T11:00:09;100826.63;;;9.89;65.66
57498;BME280;43336;51.416;-0.810;2023-04-27T11:03:21;100724.66;;;9.43;65.73
57498;BME280;43336;51.416;-0.810;2023-04-27T11:06:21;100840.16;;;10.15;65.59
57498;BME280;43336;51.416;-0.810;2023-04-27T11:09:25;100725.16;;;9.51;65.64
57498;BME280;43336;51.416;-0.810;2023-04-27T11:12:26;100636.47;;;9.01;65.91
57498;BME280;43336;51.416;-0.810;2023-04-27T11:15:27;100795.28;;;9.91;65.63
57498;BME280;43336;51.416;-0.810;2023-04-27T11:18:30;100741.09;;;9.63;65.75
57498;BME280;43336;51.416;-0.810;2023-04-27T11:21:31;100734.94;;;9.64;65.87
57498;BME280;43336;51.416;-0.810;2023-04-27T11:24:32;100699.31;;;9.47;65.80
57498;BME280;43336;51.416;-0.810;2023-04-27T11:27:37;100818.56;;;10.30;65.62
57498;BME280;43336;51.416;-0.810;2023-04-27T11:30:38;100810.97;;;10.25;66.14
57498;BME280;43336;51.416;-0.810;2023-04-27T11:33:47;100819.84;;;10.39;66.05
57498;BME280;43336;51.416;-0.810;2023-04-27T11:37:04;100803.91;;;10.27;65.90
57498;BME280;43336;51.416;-0.810;2023-04-27T11:40:06;100811.03;;;10.41;66.25
57498;BME280;43336;51.416;-0.810;2023-04-27T11:43:11;100756.50;;;10.19;65.75
57498;BME280;43336;51.416;-0.810;2023-04-27T11:46:12;100733.44;;;10.12;66.19
57498;BME280;43336;51.416;-0.810;2023-04-27T11:49:13;100763.00;;;10.45;66.00
57498;BME280;43336;51.416;-0.810;2023-04-27T11:52:15;100783.50;;;10.53;65.82
57498;BME280;43336;51.416;-0.810;2023-04-27T11:55:15;100730.50;;;10.35;65.85
57498;BME280;43336;51.416;-0.810;2023-04-27T11:58:16;100705.53;;;10.31;65.33
57498;BME280;43336;51.416;-0.810;2023-04-27T12:01:17;100657.78;;;9.96;66.17
57498;BME280;43336;51.416;-0.810;2023-04-27T12:04:18;100719.91;;;10.38;66.56
57498;BME280;43336;51.416;-0.810;2023-04-27T12:07:18;100660.22;;;10.16;66.40
57498;BME280;43336;51.416;-0.810;2023-04-27T12:10:19;100733.81;;;10.72;66.07
57498;BME280;43336;51.416;-0.810;2023-04-27T12:13:20;100637.44;;;10.20;65.75
57498;BME280;43336;51.416;-0.810;2023-04-27T12:16:23;100641.56;;;10.24;66.55
57498;BME280;43336;51.416;-0.810;2023-04-27T12:19:23;100685.22;;;10.54;65.90
57498;BME280;43336;51.416;-0.810;2023-04-27T12:22:25;100734.06;;;10.83;65.72
57498;BME280;43336;51.416;-0.810;2023-04-27T12:25:27;100651.38;;;10.36;65.57
57498;BME280;43336;51.416;-0.810;2023-04-27T12:28:29;100704.94;;;10.75;66.24
57498;BME280;43336;51.416;-0.810;2023-04-27T12:31:30;100679.75;;;10.58;65.90
57498;BME280;43336;51.416;-0.810;2023-04-27T12:34:31;100703.75;;;10.81;66.33
57498;BME280;43336;51.416;-0.810;2023-04-27T12:37:32;100715.22;;;10.94;66.46
57498;BME280;43336;51.416;-0.810;2023-04-27T12:40:33;100688.09;;;10.81;66.33
57498;BME280;43336;51.416;-0.810;2023-04-27T12:43:35;100707.22;;;10.97;66.50
57498;BME280;43336;51.416;-0.810;2023-04-27T12:46:41;100712.34;;;10.98;66.66
57498;BME280;43336;51.416;-0.810;2023-04-27T12:49:42;100610.19;;;10.43;66.95
57498;BME280;43336;51.416;-0.810;2023-04-27T12:52:43;100720.94;;;11.01;66.65
57498;BME280;43336;51.416;-0.810;2023-04-27T12:55:43;100621.44;;;10.43;66.55
57498;BME280;43336;51.416;-0.810;2023-04-27T12:58:44;100695.44;;;10.90;67.08
57498;BME280;43336;51.416;-0.810;2023-04-27T13:01:45;100657.16;;;10.74;66.98
57498;BME280;43336;51.416;-0.810;2023-04-27T13:04:46;100715.22;;;11.10;67.00
57498;BME280;43336;51.416;-0.810;2023-04-27T13:07:47;100680.09;;;10.84;67.11
57498;BME280;43336;51.416;-0.810;2023-04-27T13:10:48;100688.38;;;10.92;66.81
57498;BME280;43336;51.416;-0.810;2023-04-27T13:13:48;100645.25;;;10.69;67.41
57498;BME280;43336;51.416;-0.810;2023-04-27T13:16:49;100690.47;;;11.01;67.35
57498;BME280;43336;51.416;-0.810;2023-04-27T13:19:51;100661.09;;;10.82;67.44
57498;BME280;43336;51.416;-0.810;2023-04-27T13:22:52;100676.84;;;10.96;67.39
57498;BME280;43336;51.416;-0.810;2023-04-27T13:25:53;100658.06;;;10.89;67.29
57498;BME280;43336;51.416;-0.810;2023-04-27T13:28:53;100706.03;;;11.18;67.12
57498;BME280;43336;51.416;-0.810;2023-04-27T13:31:54;100695.25;;;11.09;67.48
57498;BME280;43336;51.416;-0.810;2023-04-27T13:34:55;100695.25;;;11.09;67.64
57498;BME280;43336;51.416;-0.810;2023-04-27T13:37:56;100643.16;;;10.91;67.83
57498;BME280;43336;51.416;-0.810;2023-04-27T13:40:56;100611.03;;;10.75;67.75
57498;BME280;43336;51.416;-0.810;2023-04-27T13:43:57;100468.84;;;9.89;68.17
57498;BME280;43336;51.416;-0.810;2023-04-27T13:46:57;100626.91;;;10.86;67.88
57498;BME280;43336;51.416;-0.810;2023-04-27T13:49:58;100655.03;;;11.13;67.31
57498;BME280;43336;51.416;-0.810;2023-04-27T13:53:00;100626.47;;;10.94;68.12
57498;BME280;43336;51.416;-0.810;2023-04-27T13:56:04;100641.88;;;10.98;68.36
57498;BME280;43336;51.416;-0.810;2023-04-27T13:59:05;100634.41;;;10.92;68.45
57498;BME280;43336;51.416;-0.810;2023-04-27T14:02:06;100638.94;;;11.05;67.88
57498;BME280;43336;51.416;-0.810;2023-04-27T14:05:07;100651.97;;;11.05;68.24
57498;BME280;43336;51.416;-0.810;2023-04-27T14:08:09;100706.09;;;11.33;68.52
57498;BME280;43336;51.416;-0.810;2023-04-27T14:11:11;100665.25;;;11.16;68.14
57498;BME280;43336;51.416;-0.810;2023-04-27T14:14:12;100631.63;;;10.95;68.38
57498;BME280;43336;51.416;-0.810;2023-04-27T14:17:13;100500.28;;;10.17;68.84
57498;BME280;43336;51.416;-0.810;2023-04-27T14:20:14;100711.91;;;11.38;68.56
57498;BME280;43336;51.416;-0.810;2023-04-27T14:23:15;100687.31;;;11.26;68.19
57498;BME280;43336;51.416;-0.810;2023-04-27T14:26:15;100701.38;;;11.39;68.84
57498;BME280;43336;51.416;-0.810;2023-04-27T14:29:17;100627.91;;;10.99;68.96
57498;BME280;43336;51.416;-0.810;2023-04-27T14:32:18;100623.88;;;10.94;68.06
57498;BME280;43336;51.416;-0.810;2023-04-27T14:35:19;100602.94;;;10.95;68.30
57498;BME280;43336;51.416;-0.810;2023-04-27T14:38:20;100619.53;;;11.09;67.69
57498;BME280;43336;51.416;-0.810;2023-04-27T14:41:21;100638.06;;;11.20;67.95
57498;BME280;43336;51.416;-0.810;2023-04-27T14:44:22;100678.19;;;11.49;68.14
57498;BME280;43336;51.416;-0.810;2023-04-27T14:47:23;100613.59;;;11.07;68.03
57498;BME280;43336;51.416;-0.810;2023-04-27T14:50:24;100654.22;;;11.27;68.08
57498;BME280;43336;51.416;-0.810;2023-04-27T14:53:24;100688.03;;;11.44;68.18
57498;BME280;43336;51.416;-0.810;2023-04-27T14:56:25;100643.19;;;11.21;68.11
57498;BME280;43336;51.416;-0.810;2023-04-27T14:59:25;100699.81;;;11.51;68.67
57498;BME280;43336;51.416;-0.810;2023-04-27T15:02:26;100676.53;;;11.32;68.11
57498;BME280;43336;51.416;-0.810;2023-04-27T15:05:27;100697.59;;;11.45;68.64
57498;BME280;43336;51.416;-0.810;2023-04-27T15:08:28;100663.66;;;11.29;68.26
57498;BME280;43336;51.416;-0.810;2023-04-27T15:11:28;100682.41;;;11.52;68.50
57498;BME280;43336;51.416;-0.810;2023-04-27T15:14:30;100617.94;;;11.22;68.64
57498;BME280;43336;51.416;-0.810;2023-04-27T15:17:30;100644.25;;;11.33;68.86
57498;BME280;43336;51.416;-0.810;2023-04-27T15:20:31;100624.03;;;11.37;69.74
57498;BME280;43336;51.416;-0.810;2023-04-27T15:23:31;100609.31;;;11.36;69.38
57498;BME280;43336;51.416;-0.810;2023-04-27T15:26:34;100567.47;;;11.21;69.83
57498;BME280;43336;51.416;-0.810;2023-04-27T15:29:35;100555.25;;;11.22;70.18
57498;BME280;43336;51.416;-0.810;2023-04-27T15:32:36;100519.63;;;11.07;70.41
57498;BME280;43336;51.416;-0.810;2023-04-27T15:35:37;100516.56;;;11.14;70.34
57498;BME280;43336;51.416;-0.810;2023-04-27T15:38:39;100526.00;;;11.31;70.82
57498;BME280;43336;51.416;-0.810;2023-04-27T15:41:40;100516.31;;;11.33;70.04
57498;BME280;43336;51.416;-0.810;2023-04-27T15:44:41;100437.44;;;10.84;70.32
57498;BME280;43336;51.416;-0.810;2023-04-27T15:47:42;100478.59;;;11.09;70.45
57498;BME280;43336;51.416;-0.810;2023-04-27T15:50:43;100378.50;;;10.51;70.63
57498;BME280;43336;51.416;-0.810;2023-04-27T15:53:44;100341.19;;;10.35;70.62
57498;BME280;43336;51.416;-0.810;2023-04-27T15:56:45;100502.03;;;11.25;70.86